Time;durP1;ratioP1;P1;durP2;ratioP2;P2;SDS_P1;SDS_P2;PMS_P1;PMS_P2;Temp;Humidity;BMP_temperature;BMP_pressure;BME280_temperature;BME280_humidity;BME280_pressure;Samples;Min_cycle;Max_cycle;Signal;HPM_P1;HPM_P2
2022/08/15 00:00:47;;;;;;;4.35;3.67;;;;;;;20.18;57.02;94774.16;5046350;28;20220;-83
2022/08/15 00:03:35;;;;;;;4.47;4.07;;;;;;;20.07;57.70;94779.16;5044700;28;20193;-82
2022/08/15 00:06:04;;;;;;;4.25;3.70;;;;;;;20.18;56.33;94780.22;5037785;28;20286;-80
2022/08/15 00:08:32;;;;;;;4.43;3.78;;;;;;;20.06;56.46;94769.66;5045072;28;20820;-81
2022/08/15 00:11:08;;;;;;;4.95;3.67;;;;;;;20.26;56.95;94765.91;5028493;28;20185;-78
2022/08/15 00:13:34;;;;;;;4.03;3.70;;;;;;;20.00;58.37;94767.09;5045796;28;20723;-78
2022/08/15 00:15:59;;;;;;;5.07;4.30;;;;;;;20.02;59.04;94757.94;5047215;28;20185;-79
2022/08/15 00:18:27;;;;;;;4.80;4.28;;;;;;;20.04;59.55;94758.50;5037990;28;20196;-80
2022/08/15 00:20:52;;;;;;;4.72;3.92;;;;;;;19.92;59.90;94747.16;5045153;28;20633;-80
2022/08/15 00:23:22;;;;;;;4.47;4.05;;;;;;;20.02;60.08;94744.75;5043737;28;20193;-78
2022/08/15 00:25:49;;;;;;;4.50;4.10;;;;;;;20.03;59.10;94733.19;5043937;28;20364;-79
2022/08/15 00:28:15;;;;;;;3.90;3.60;;;;;;;19.97;59.86;94736.75;5044600;28;20682;-80
2022/08/15 00:30:42;;;;;;;5.03;3.75;;;;;;;19.93;60.24;94746.13;5037417;28;20229;-79
2022/08/15 00:33:07;;;;;;;5.78;4.07;;;;;;;19.82;60.60;94746.09;5045739;28;20185;-80
2022/08/15 00:35:36;;;;;;;4.47;4.07;;;;;;;19.87;61.23;94735.66;5038471;28;20197;-80
2022/08/15 00:38:06;;;;;;;6.38;3.80;;;;;;;19.99;59.87;94736.50;5037013;28;20296;-80
2022/08/15 00:41:39;;;;;;;6.88;4.63;;;;;;;20.07;59.87;94742.25;5033803;28;20185;-81
2022/08/15 00:43:18;;;;;;;6.78;4.55;;;;;;;20.07;60.50;94746.72;5046503;28;20189;-80
2022/08/15 00:45:43;;;;;;;5.97;4.38;;;;;;;20.17;59.77;94746.19;5037865;28;20219;-79
2022/08/15 00:50:52;;;;;;;6.78;4.50;;;;;;;20.18;59.95;94734.59;5050186;28;20192;-80
2022/08/15 00:53:18;;;;;;;5.25;4.53;;;;;;;20.16;60.26;94739.31;5036758;28;20212;-79
2022/08/15 00:55:44;;;;;;;6.93;4.47;;;;;;;20.23;60.82;94739.97;5043217;28;20202;-80
2022/08/15 00:58:10;;;;;;;7.70;5.03;;;;;;;20.30;60.25;94740.69;5047283;28;20185;-81
2022/08/15 01:00:44;;;;;;;7.68;4.70;;;;;;;20.30;60.73;94741.50;5038083;28;20254;-79
2022/08/15 01:03:27;;;;;;;7.88;4.70;;;;;;;20.22;61.19;94748.91;5036658;28;20192;-78
2022/08/15 01:05:56;;;;;;;7.50;4.82;;;;;;;20.20;60.97;94745.72;5044178;28;20240;-82
2022/08/15 01:08:24;;;;;;;8.23;4.72;;;;;;;20.28;60.75;94738.28;5029512;28;20622;-80
2022/08/15 01:10:50;;;;;;;4.60;4.05;;;;;;;20.30;60.21;94738.03;5030229;28;20201;-81
2022/08/15 01:13:15;;;;;;;9.00;4.47;;;;;;;20.37;60.09;94742.19;5037994;28;20189;-80
2022/08/15 01:15:41;;;;;;;6.47;4.07;;;;;;;20.36;61.08;94745.06;5044636;28;20216;-81
2022/08/15 01:18:06;;;;;;;7.05;4.13;;;;;;;20.33;60.37;94730.50;5041341;28;20178;-81
2022/08/15 01:20:34;;;;;;;6.35;4.22;;;;;;;20.37;60.33;94742.19;5047284;28;20311;-82
2022/08/15 01:23:06;;;;;;;7.22;4.32;;;;;;;20.40;60.16;94745.41;5045422;28;20190;-79
2022/08/15 01:26:00;;;;;;;7.25;5.28;;;;;;;20.41;59.78;94737.28;5043524;28;20579;-80
2022/08/15 01:28:35;;;;;;;4.32;3.85;;;;;;;20.39;59.76;94739.31;5028431;28;20205;-80
2022/08/15 01:31:08;;;;;;;6.22;4.60;;;;;;;20.39;60.67;94744.59;5027438;28;20205;-80
2022/08/15 01:33:39;;;;;;;7.00;4.80;;;;;;;20.40;60.27;94740.13;5044382;28;20703;-81
2022/08/15 01:36:04;;;;;;;5.30;4.80;;;;;;;20.41;59.93;94747.00;5046458;28;20667;-80
2022/08/15 01:38:47;;;;;;;12.95;4.93;;;;;;;20.43;59.83;94742.31;5045140;28;20181;-79
2022/08/15 01:41:24;;;;;;;5.43;4.63;;;;;;;20.40;60.07;94734.84;5044716;28;20186;-80
2022/08/15 01:44:08;;;;;;;9.40;4.68;;;;;;;20.41;60.00;94741.72;5043526;28;20320;-80
2022/08/15 01:46:47;;;;;;;5.45;4.32;;;;;;;20.47;60.00;94741.66;5036030;28;20194;-82
2022/08/15 01:49:18;;;;;;;5.70;3.83;;;;;;;20.43;60.03;94745.78;5028322;28;20704;-79
2022/08/15 01:51:44;;;;;;;4.97;3.83;;;;;;;20.33;59.97;94746.31;5049893;28;20185;-80
2022/08/15 01:54:12;;;;;;;4.57;4.10;;;;;;;20.35;60.42;94746.09;5037029;28;20611;-80
2022/08/15 01:56:40;;;;;;;6.20;4.50;;;;;;;20.29;60.63;94745.16;5043718;28;20188;-81
2022/08/15 01:59:10;;;;;;;9.75;4.22;;;;;;;20.28;60.45;94740.13;5036543;28;20232;-79
2022/08/15 02:01:43;;;;;;;7.22;4.30;;;;;;;20.29;60.58;94739.09;5046777;28;20184;-79
2022/08/15 02:04:12;;;;;;;7.85;4.10;;;;;;;20.30;60.52;94733.56;5044011;28;20598;-79
2022/08/15 02:06:37;;;;;;;8.55;4.38;;;;;;;20.33;60.39;94735.78;5027430;28;20745;-79
2022/08/15 02:09:08;;;;;;;5.47;4.50;;;;;;;20.28;60.45;94738.28;5037140;28;20215;-80
2022/08/15 02:11:33;;;;;;;6.32;4.63;;;;;;;20.30;60.68;94738.03;5045591;28;20674;-82
2022/08/15 02:13:59;;;;;;;4.78;4.25;;;;;;;20.30;60.47;94733.56;5043144;28;20211;-79
2022/08/15 02:16:30;;;;;;;5.53;4.50;;;;;;;20.28;61.00;94732.22;5046175;28;20192;-82
2022/08/15 02:18:55;;;;;;;4.70;4.30;;;;;;;20.26;60.82;94727.16;5045677;28;20561;-80
2022/08/15 02:21:21;;;;;;;5.38;4.38;;;;;;;20.25;60.94;94732.66;5043367;28;20268;-80
2022/08/15 02:23:46;;;;;;;5.63;4.18;;;;;;;20.25;61.30;94732.66;5045267;28;20633;-82
2022/08/15 02:26:11;;;;;;;6.45;4.20;;;;;;;20.30;60.73;94738.03;5042164;28;20197;-79
2022/08/15 02:28:40;;;;;;;7.15;4.47;;;;;;;20.28;61.00;94737.47;5046095;28;20639;-80
2022/08/15 02:31:16;;;;;;;5.65;3.67;;;;;;;20.29;61.07;94747.00;5042710;28;20182;-81
2022/08/15 02:33:55;;;;;;;5.75;4.00;;;;;;;20.29;61.20;94757.53;5037017;28;20271;-79
2022/08/15 02:36:22;;;;;;;4.90;4.38;;;;;;;20.24;61.62;94752.16;5044468;28;20181;-80
2022/08/15 02:38:49;;;;;;;7.57;4.50;;;;;;;20.22;61.44;94751.56;5039729;28;20699;-80
2022/08/15 02:41:29;;;;;;;6.53;4.30;;;;;;;20.23;60.80;94754.00;5028310;28;20551;-81
2022/08/15 02:43:54;;;;;;;4.28;3.70;;;;;;;20.14;62.17;94762.44;5033169;28;20209;-82
2022/08/15 02:46:20;;;;;;;4.95;4.43;;;;;;;20.11;62.29;94755.78;5035900;28;20293;-81
2022/08/15 02:48:47;;;;;;;7.55;5.60;;;;;;;20.11;62.32;94761.06;5033924;28;20196;-78
2022/08/15 02:51:16;;;;;;;8.10;5.47;;;;;;;20.14;61.91;94754.53;5069449;28;20220;-78
2022/08/15 02:53:46;;;;;;;7.25;4.78;;;;;;;20.13;62.90;94755.56;5069723;28;20196;-78
2022/08/15 02:56:11;;;;;;;4.90;4.10;;;;;;;20.04;63.97;94760.34;5057427;28;20201;-78
2022/08/15 02:58:37;;;;;;;5.15;4.00;;;;;;;20.05;64.37;94761.94;5070000;28;20169;-78
2022/08/15 03:01:05;;;;;;;5.28;4.10;;;;;;;20.09;64.60;94756.00;5070848;28;20207;-78
2022/08/15 03:03:30;;;;;;;5.50;4.30;;;;;;;20.01;66.29;94753.69;5030638;28;20196;-80
2022/08/15 03:05:57;;;;;;;11.40;4.30;;;;;;;19.98;67.25;94748.88;5044843;28;20201;-80
2022/08/15 03:08:23;;;;;;;5.28;4.35;;;;;;;20.01;67.56;94747.63;5045935;28;20204;-79
2022/08/15 03:10:48;;;;;;;6.10;4.45;;;;;;;19.96;68.36;94755.38;5042394;28;20193;-80
2022/08/15 03:13:16;;;;;;;5.70;4.65;;;;;;;19.82;69.09;94760.06;5044584;28;20193;-79
2022/08/15 03:15:46;;;;;;;5.22;4.43;;;;;;;19.65;70.92;94765.13;5037864;28;20224;-80
2022/08/15 03:18:12;;;;;;;5.72;4.88;;;;;;;19.67;71.18;94764.91;5025351;28;20181;-80
2022/08/15 03:20:38;;;;;;;6.07;4.80;;;;;;;19.42;71.93;94767.63;5048396;28;20173;-80
2022/08/15 03:23:06;;;;;;;7.00;5.50;;;;;;;19.58;71.97;94761.78;5029202;28;20195;-79
2022/08/15 03:25:32;;;;;;;7.50;4.70;;;;;;;19.46;73.05;94753.81;5043226;28;20228;-80
2022/08/15 03:27:58;;;;;;;7.30;4.50;;;;;;;19.52;73.04;94754.72;5044235;28;20209;-80
2022/08/15 03:30:23;;;;;;;7.85;4.75;;;;;;;19.47;73.56;94750.16;5041730;28;20182;-79
2022/08/15 03:32:55;;;;;;;6.78;4.75;;;;;;;19.22;76.77;94739.72;5028268;28;20185;-79
2022/08/15 03:35:23;;;;;;;7.35;5.10;;;;;;;19.15;78.09;94738.97;5035080;28;20235;-80
2022/08/15 03:37:48;;;;;;;6.90;5.22;;;;;;;19.04;78.83;94749.44;5025698;28;20225;-80
2022/08/15 03:40:13;;;;;;;5.88;5.07;;;;;;;19.09;78.47;94744.34;5027091;28;20216;-79
2022/08/15 03:43:09;;;;;;;5.03;4.53;;;;;;;19.08;78.74;94750.59;5044202;28;20192;-80
2022/08/15 03:45:34;;;;;;;5.28;4.47;;;;;;;19.12;79.30;94754.41;5064131;28;20241;-79
2022/08/15 03:48:01;;;;;;;5.40;4.90;;;;;;;19.10;78.83;94746.75;5065999;28;20208;-79
2022/08/15 03:50:28;;;;;;;7.78;4.40;;;;;;;19.06;79.54;94747.38;5051805;28;20181;-79
2022/08/15 03:53:02;;;;;;;5.43;4.95;;;;;;;18.94;79.34;94750.75;5057829;28;20177;-80
2022/08/15 03:55:29;;;;;;;5.95;5.32;;;;;;;18.80;80.38;94748.47;5060439;28;20235;-82
2022/08/15 03:57:55;;;;;;;5.53;5.03;;;;;;;18.73;80.23;94745.09;5036310;28;20668;-81
2022/08/15 04:00:27;;;;;;;4.97;4.47;;;;;;;18.72;80.16;94743.47;5044187;28;20189;-81
2022/08/15 04:02:53;;;;;;;6.38;5.20;;;;;;;18.75;81.16;94738.63;5034629;28;20251;-79
2022/08/15 04:05:19;;;;;;;5.60;4.63;;;;;;;18.83;80.28;94746.22;5045069;28;20208;-81
2022/08/15 04:07:45;;;;;;;5.07;4.63;;;;;;;18.86;80.16;94745.78;5053433;28;20201;-80
2022/08/15 04:10:15;;;;;;;6.20;5.13;;;;;;;18.79;80.59;94747.66;5042272;28;20201;-81
2022/08/15 04:12:41;;;;;;;7.05;4.70;;;;;;;18.75;81.75;94746.50;5044670;28;20242;-80
2022/08/15 04:15:13;;;;;;;5.07;4.68;;;;;;;18.72;80.83;94743.47;5037313;28;20549;-81
2022/08/15 04:17:38;;;;;;;5.03;4.53;;;;;;;18.72;80.28;94749.53;5038545;28;20208;-80
2022/08/15 04:20:05;;;;;;;8.27;4.93;;;;;;;18.78;80.44;94748.69;5030703;28;20220;-81
2022/08/15 04:22:44;;;;;;;5.05;4.60;;;;;;;18.70;79.92;94754.22;5046019;28;20190;-78
2022/08/15 04:25:16;;;;;;;6.28;4.47;;;;;;;18.72;79.22;94756.63;5034329;28;20229;-80
2022/08/15 04:27:42;;;;;;;6.35;4.80;;;;;;;18.77;79.19;94762.06;5064179;28;20253;-80
2022/08/15 04:30:09;;;;;;;5.00;4.38;;;;;;;18.78;78.89;94758.41;5046280;28;20284;-79
2022/08/15 04:32:34;;;;;;;5.63;4.50;;;;;;;18.73;79.50;94774.03;5065908;28;20184;-79
2022/08/15 04:35:00;;;;;;;6.35;4.47;;;;;;;18.67;79.83;94767.81;5043751;28;20197;-78
2022/08/15 04:37:27;;;;;;;6.95;4.43;;;;;;;18.48;82.24;94772.19;5029935;28;20267;-79
2022/08/15 04:39:53;;;;;;;5.00;4.50;;;;;;;18.67;81.58;94775.72;5064576;28;20188;-81
2022/08/15 04:42:21;;;;;;;8.38;5.28;;;;;;;18.71;81.39;94779.50;5061900;28;20166;-82
2022/08/15 04:44:48;;;;;;;6.75;5.13;;;;;;;18.64;82.64;94790.06;5070965;28;20186;-79
2022/08/15 04:47:14;;;;;;;4.95;4.13;;;;;;;18.64;82.16;94782.19;5061677;28;20224;-81
2022/08/15 04:49:40;;;;;;;5.97;5.40;;;;;;;18.61;82.86;94787.06;5036887;28;20664;-79
2022/08/15 04:52:18;;;;;;;6.63;5.32;;;;;;;18.40;84.19;94788.25;5030218;28;20631;-78
2022/08/15 04:54:43;;;;;;;7.82;5.32;;;;;;;18.51;83.85;94782.28;5030704;28;20212;-80
2022/08/15 04:57:09;;;;;;;7.30;4.88;;;;;;;18.59;83.29;94783.84;5047095;28;20181;-80
2022/08/15 04:59:36;;;;;;;6.50;5.43;;;;;;;18.57;83.86;94781.44;5036800;28;20672;-81
2022/08/15 05:02:03;;;;;;;6.60;4.53;;;;;;;18.64;83.78;94782.19;5038360;28;20268;-80
2022/08/15 05:04:28;;;;;;;6.57;4.90;;;;;;;18.72;83.45;94782.94;5046517;28;20208;-80
2022/08/15 05:06:53;;;;;;;4.80;4.38;;;;;;;18.42;83.26;94780.13;5062918;28;20538;-79
2022/08/15 05:09:18;;;;;;;4.50;3.65;;;;;;;18.47;79.74;94780.31;5046494;28;21033;-80
2022/08/15 05:11:44;;;;;;;5.45;4.38;;;;;;;18.37;81.26;94775.50;5046095;28;20231;-79
2022/08/15 05:14:09;;;;;;;4.97;4.50;;;;;;;18.54;81.02;94773.16;5044853;28;20268;-80
2022/08/15 05:16:35;;;;;;;6.03;4.07;;;;;;;18.69;79.85;94776.28;5053891;28;20213;-79
2022/08/15 05:19:00;;;;;;;7.00;4.47;;;;;;;18.68;80.40;94775.50;5038609;28;20181;-79
2022/08/15 05:21:27;;;;;;;5.05;4.50;;;;;;;18.56;81.64;94771.94;5048595;28;20189;-82
2022/08/15 05:23:53;;;;;;;5.90;4.28;;;;;;;18.65;81.11;94769.88;5045351;28;20587;-81
2022/08/15 05:26:18;;;;;;;5.35;4.00;;;;;;;18.85;79.98;94765.22;5047215;28;20185;-79
2022/08/15 05:28:43;;;;;;;4.85;3.88;;;;;;;18.85;79.14;94762.59;5040668;28;20229;-80
2022/08/15 05:31:10;;;;;;;5.10;4.57;;;;;;;18.92;79.13;94755.44;5044790;28;20189;-80
2022/08/15 05:33:37;;;;;;;4.53;4.13;;;;;;;18.93;78.77;94758.88;5045170;28;20185;-80
2022/08/15 05:36:04;;;;;;;4.70;4.22;;;;;;;18.79;79.48;94760.00;5024016;28;20185;-80
2022/08/15 05:38:34;;;;;;;5.75;4.40;;;;;;;18.73;80.36;94758.25;5042337;28;20182;-80
2022/08/15 05:41:30;;;;;;;4.10;3.80;;;;;;;18.68;79.90;94753.66;5050552;28;20649;-80
2022/08/15 05:44:02;;;;;;;4.53;3.92;;;;;;;18.71;79.62;94734.78;5037586;28;20252;-78
2022/08/15 05:46:45;;;;;;;4.28;3.88;;;;;;;18.85;79.27;94728.38;5050646;28;20197;-77
2022/08/15 05:49:42;;;;;;;5.50;4.00;;;;;;;18.86;78.54;94731.81;5052727;28;20262;-76
2022/08/15 05:52:15;;;;;;;4.63;4.22;;;;;;;18.70;80.06;94742.91;5072454;28;20208;-80
2022/08/15 05:55:28;;;;;;;5.45;4.07;;;;;;;18.83;79.36;94764.63;5055588;28;20209;-81
2022/08/15 05:57:59;;;;;;;4.70;4.03;;;;;;;18.56;80.55;94750.91;5043293;28;20676;-79
2022/08/15 06:00:26;;;;;;;5.85;4.18;;;;;;;18.55;80.52;94756.34;5053356;28;20185;-81
2022/08/15 06:02:57;;;;;;;5.50;4.00;;;;;;;18.72;80.05;94761.91;5032557;28;20201;-79
2022/08/15 06:05:38;;;;;;;4.10;3.50;;;;;;;18.83;79.05;94763.84;5047417;28;20198;-81
2022/08/15 06:08:25;;;;;;;4.47;3.90;;;;;;;18.54;79.29;94763.44;5053334;28;20698;-80
2022/08/15 06:11:02;;;;;;;3.90;3.60;;;;;;;18.67;78.19;94760.72;5065044;28;20197;-80
2022/08/15 06:13:38;;;;;;;3.90;3.58;;;;;;;18.85;77.81;94767.84;5036286;28;20283;-80
2022/08/15 06:16:19;;;;;;;4.25;3.50;;;;;;;18.98;77.20;94771.34;5049396;28;20177;-81
2022/08/15 06:18:46;;;;;;;4.18;3.85;;;;;;;19.07;76.28;94770.03;5036708;28;20177;-81
2022/08/15 06:21:37;;;;;;;3.95;3.35;;;;;;;19.03;76.38;94771.50;5036594;28;20177;-80
2022/08/15 06:24:11;;;;;;;4.35;3.85;;;;;;;19.30;74.90;94778.09;5029287;28;20216;-80
2022/08/15 06:26:49;;;;;;;3.15;2.85;;;;;;;19.11;75.19;94769.41;5029997;28;20343;-80
2022/08/15 06:29:17;;;;;;;4.93;3.17;;;;;;;19.24;75.86;94771.06;5045619;28;20668;-80
2022/08/15 06:32:09;;;;;;;5.88;3.40;;;;;;;19.06;75.58;94781.59;5053558;28;20285;-80
2022/08/15 06:34:56;;;;;;;3.85;3.42;;;;;;;19.44;74.88;94784.81;5031872;28;20284;-81
2022/08/15 06:37:36;;;;;;;3.65;3.35;;;;;;;19.73;73.20;94785.91;5037487;28;20173;-80
2022/08/15 06:40:05;;;;;;;4.03;3.35;;;;;;;19.69;73.26;94783.94;5032641;28;20199;-79
2022/08/15 06:42:41;;;;;;;5.57;3.53;;;;;;;19.58;73.05;94777.59;5067260;28;20258;-79
2022/08/15 06:45:19;;;;;;;3.45;2.83;;;;;;;19.46;72.77;94781.97;5041626;28;20215;-80
2022/08/15 06:47:45;;;;;;;3.83;3.15;;;;;;;19.38;73.34;94785.69;5046609;28;20350;-80
2022/08/15 06:50:23;;;;;;;3.85;3.00;;;;;;;19.23;74.24;94788.69;5038120;28;20185;-80
2022/08/15 06:52:52;;;;;;;3.67;3.25;;;;;;;19.31;74.27;94797.31;5049087;28;20653;-80
2022/08/15 06:55:19;;;;;;;3.67;3.42;;;;;;;19.42;74.16;94793.94;5029879;28;20202;-80
2022/08/15 06:58:12;;;;;;;4.68;3.95;;;;;;;19.47;74.86;94792.28;5047121;28;20185;-80
2022/08/15 07:00:43;;;;;;;5.70;3.67;;;;;;;19.57;74.35;94796.25;5041768;28;20197;-81
2022/08/15 07:03:25;;;;;;;3.70;2.97;;;;;;;19.60;73.13;94801.88;5050634;28;20720;-81
2022/08/15 07:05:55;;;;;;;4.93;3.30;;;;;;;19.63;71.50;94809.34;5033762;28;20733;-80
2022/08/15 07:08:33;;;;;;;4.25;3.13;;;;;;;19.64;70.59;94810.94;5044916;28;20251;-79
2022/08/15 07:11:22;;;;;;;5.15;3.45;;;;;;;19.84;70.27;94810.69;5043884;28;20185;-80
2022/08/15 07:14:06;;;;;;;4.25;3.58;;;;;;;20.03;70.75;94804.34;5032333;28;20292;-81
2022/08/15 07:17:03;;;;;;;3.75;3.35;;;;;;;20.26;69.47;94811.53;5064111;28;20232;-81
2022/08/15 07:19:29;;;;;;;4.07;3.63;;;;;;;20.32;69.61;94804.56;4936037;29;20233;-80
2022/08/15 07:21:54;;;;;;;5.68;3.33;;;;;;;20.59;68.83;94813.69;4951013;28;20640;-81
2022/08/15 07:24:19;;;;;;;3.55;3.25;;;;;;;21.35;66.72;94805.91;4947187;28;20635;-80
2022/08/15 07:26:51;;;;;;;5.17;2.47;;;;;;;21.93;62.39;94797.81;4966511;28;20215;-81
2022/08/15 07:29:37;;;;;;;5.88;2.25;;;;;;;22.34;60.39;94803.84;4929764;29;20475;-81
2022/08/15 07:32:17;;;;;;;3.28;2.60;;;;;;;22.31;61.19;94810.44;4964323;28;20193;-81
2022/08/15 07:35:12;;;;;;;2.63;2.15;;;;;;;22.41;60.21;94809.00;4961907;28;20259;-79
2022/08/15 07:38:02;;;;;;;4.38;2.38;;;;;;;22.17;59.93;94805.66;4954017;28;20759;-79
2022/08/15 07:40:31;;;;;;;3.28;2.50;;;;;;;22.36;58.68;94803.63;4947580;28;20296;-80
2022/08/15 07:42:58;;;;;;;3.03;2.80;;;;;;;22.36;58.70;94808.94;4948089;28;20193;-80
2022/08/15 07:45:39;;;;;;;3.22;2.58;;;;;;;22.36;58.68;94816.88;4934057;28;20308;-81
2022/08/15 07:48:18;;;;;;;2.35;2.13;;;;;;;22.17;57.02;94803.81;4947991;28;20303;-81
2022/08/15 07:50:45;;;;;;;2.38;1.88;;;;;;;22.00;56.05;94816.19;4945045;28;20685;-78
2022/08/15 07:53:17;;;;;;;2.45;2.00;;;;;;;22.53;56.25;94813.19;4957860;28;20220;-79
2022/08/15 07:56:12;;;;;;;2.47;2.03;;;;;;;22.47;55.21;94810.69;4967431;28;20285;-80
2022/08/15 07:58:39;;;;;;;3.28;1.70;;;;;;;22.17;54.89;94819.69;5065419;28;20184;-80
2022/08/15 08:01:12;;;;;;;2.15;1.60;;;;;;;22.06;55.19;94812.59;5052214;28;20212;-80
2022/08/15 08:03:40;;;;;;;3.08;1.90;;;;;;;22.24;54.53;94814.25;5047309;28;20178;-79
2022/08/15 08:06:36;;;;;;;1.75;1.60;;;;;;;22.89;53.00;94806.66;5037105;28;20197;-81
2022/08/15 08:09:23;;;;;;;2.08;1.88;;;;;;;23.03;52.31;94806.28;5024283;28;20705;-80
2022/08/15 08:11:54;;;;;;;2.67;1.75;;;;;;;23.26;51.02;94810.59;5067162;28;20268;-81
2022/08/15 08:14:38;;;;;;;2.25;1.52;;;;;;;22.97;50.44;94804.63;5050177;28;20308;-82
2022/08/15 08:17:24;;;;;;;1.67;1.58;;;;;;;23.08;50.60;94811.69;5066658;28;20173;-80
2022/08/15 08:20:08;;;;;;;1.77;1.63;;;;;;;23.08;49.83;94814.31;5066391;28;20793;-81
2022/08/15 08:22:38;;;;;;;1.65;1.55;;;;;;;22.95;49.52;94812.81;5065296;28;20185;-80
2022/08/15 08:25:10;;;;;;;1.88;1.50;;;;;;;23.39;49.09;94818.97;5045244;28;20252;-80
2022/08/15 08:28:27;;;;;;;3.17;1.50;;;;;;;23.52;48.33;94815.19;5049356;28;20224;-80
2022/08/15 08:31:27;;;;;;;1.50;1.40;;;;;;;23.74;47.34;94812.56;5033267;28;20185;-81
2022/08/15 08:34:14;;;;;;;2.22;1.58;;;;;;;23.69;47.12;94813.31;5046039;28;20201;-79
2022/08/15 08:36:59;;;;;;;1.65;1.33;;;;;;;23.91;46.64;94810.63;5035475;28;20192;-81
2022/08/15 08:41:24;;;;;;;2.67;1.50;;;;;;;23.64;46.17;94817.75;5038225;28;20189;-80
2022/08/15 08:43:22;;;;;;;2.13;1.52;;;;;;;23.58;46.22;94835.38;5066439;28;20200;-79
2022/08/15 08:46:23;;;;;;;2.33;1.83;;;;;;;23.74;45.57;94831.13;5030529;28;20643;-81
2022/08/15 08:49:04;;;;;;;4.38;1.90;;;;;;;23.83;45.09;94826.97;5039482;28;20708;-80
2022/08/15 08:51:42;;;;;;;1.77;1.67;;;;;;;23.89;45.72;94831.31;5054122;28;20200;-80
2022/08/15 08:54:19;;;;;;;1.95;1.80;;;;;;;24.01;44.52;94837.25;5040347;28;20383;-80
2022/08/15 08:56:47;;;;;;;1.95;1.85;;;;;;;23.97;44.62;94836.16;5051855;28;20216;-82
2022/08/15 08:59:35;;;;;;;3.90;1.90;;;;;;;23.99;45.06;94846.53;5041037;28;20181;-81
2022/08/15 09:02:26;;;;;;;2.35;1.88;;;;;;;24.43;43.19;94846.50;5042267;28;20204;-80
2022/08/15 09:04:55;;;;;;;2.10;1.60;;;;;;;24.31;43.27;94846.63;5031534;28;20231;-79
2022/08/15 09:07:24;;;;;;;1.88;1.70;;;;;;;24.55;42.56;94839.97;5049302;28;20208;-81
2022/08/15 09:09:52;;;;;;;1.95;1.83;;;;;;;24.68;42.39;94841.41;5047634;28;20303;-81
2022/08/15 09:15:14;;;;;;;1.70;1.60;;;;;;;24.42;42.93;94837.72;5046306;28;20298;-80
2022/08/15 09:17:42;;;;;;;2.85;1.60;;;;;;;24.32;42.85;94839.50;5049124;28;20181;-81
2022/08/15 09:20:10;;;;;;;1.67;1.52;;;;;;;24.44;42.54;94832.97;5049205;28;20712;-79
2022/08/15 09:22:36;;;;;;;3.65;1.70;;;;;;;24.22;43.65;94833.00;5048807;28;20169;-81
2022/08/15 09:25:01;;;;;;;3.25;1.52;;;;;;;24.40;43.60;94834.53;5046889;28;20239;-82
2022/08/15 09:27:45;;;;;;;1.92;1.73;;;;;;;24.43;43.87;94835.88;5065317;28;20210;-82
2022/08/15 09:30:11;;;;;;;3.92;1.60;;;;;;;24.12;43.16;94834.72;5046829;28;20202;-82
2022/08/15 09:33:01;;;;;;;3.97;1.55;;;;;;;24.56;42.57;94825.66;5052124;28;20180;-80
2022/08/15 09:35:45;;;;;;;1.73;1.60;;;;;;;24.40;41.83;94829.22;5057280;28;20194;-79
2022/08/15 09:38:47;;;;;;;1.50;1.40;;;;;;;24.28;42.20;94826.66;5056655;28;20435;-78
2022/08/15 09:41:55;;;;;;;2.47;1.63;;;;;;;24.55;41.30;94832.00;5051208;28;20228;-80
2022/08/15 09:44:36;;;;;;;1.70;1.60;;;;;;;24.68;42.08;94832.66;5070153;28;20235;-79
2022/08/15 09:47:40;;;;;;;3.05;1.52;;;;;;;24.80;41.47;94831.41;5059436;28;20193;-80
2022/08/15 09:50:05;;;;;;;3.00;1.77;;;;;;;25.26;39.64;94823.00;5050921;28;20193;-79
2022/08/15 09:52:53;;;;;;;1.92;1.83;;;;;;;25.11;41.47;94823.72;5053082;28;20188;-80
2022/08/15 09:55:44;;;;;;;1.70;1.60;;;;;;;24.84;42.51;94815.78;5060372;28;20198;-80
2022/08/15 09:58:27;;;;;;;2.13;1.70;;;;;;;24.90;42.07;94820.06;5034480;28;20177;-79
2022/08/15 10:01:09;;;;;;;1.98;1.60;;;;;;;24.42;42.93;94824.47;5048829;28;20213;-81
2022/08/15 10:03:43;;;;;;;1.70;1.60;;;;;;;24.60;42.06;94825.94;5049345;28;20197;-80
2022/08/15 10:06:12;;;;;;;1.70;1.60;;;;;;;24.77;41.02;94820.50;5062698;28;20177;-80
2022/08/15 10:09:11;;;;;;;3.92;1.80;;;;;;;24.85;41.26;94822.72;5060646;28;20626;-81
2022/08/15 10:11:39;;;;;;;4.40;1.90;;;;;;;24.98;40.44;94811.63;5002428;28;20201;-80
2022/08/15 10:14:26;;;;;;;2.72;2.10;;;;;;;25.06;40.84;94813.84;5050026;28;20235;-80
2022/08/15 10:16:55;;;;;;;4.43;1.90;;;;;;;25.06;39.40;94811.19;5045204;28;20197;-79
2022/08/15 10:19:41;;;;;;;2.25;2.05;;;;;;;25.15;39.12;94811.50;5030956;28;20186;-80
2022/08/15 10:22:25;;;;;;;2.20;1.92;;;;;;;25.40;39.92;94810.88;5043031;28;20192;-81
2022/08/15 10:25:18;;;;;;;3.03;2.10;;;;;;;25.06;40.41;94813.84;5052604;28;20216;-80
2022/08/15 10:27:55;;;;;;;2.15;1.95;;;;;;;25.29;38.85;94811.88;5062211;28;20280;-80
2022/08/15 10:30:24;;;;;;;2.45;2.15;;;;;;;25.07;39.16;94810.13;5032131;28;20247;-81
2022/08/15 10:32:52;;;;;;;3.83;2.00;;;;;;;25.16;38.67;94805.13;5037010;28;20177;-81
2022/08/15 10:35:41;;;;;;;2.30;2.10;;;;;;;25.24;38.51;94801.19;5050628;28;20208;-80
2022/08/15 10:38:07;;;;;;;3.28;2.53;;;;;;;25.45;38.39;94800.28;5047799;28;20653;-82
2022/08/15 10:40:56;;;;;;;2.20;2.00;;;;;;;25.47;38.14;94792.84;5037354;28;20189;-80
2022/08/15 10:43:40;;;;;;;3.28;2.60;;;;;;;25.24;37.64;94791.38;5051761;28;20185;-82
2022/08/15 10:46:49;;;;;;;4.75;2.45;;;;;;;25.26;37.95;94791.09;5034627;28;20695;-82
2022/08/15 10:49:32;;;;;;;3.90;2.50;;;;;;;25.46;37.48;94785.91;5050405;28;20229;-81
2022/08/15 10:52:19;;;;;;;4.55;2.50;;;;;;;25.45;38.11;94786.19;5029277;28;20276;-82
2022/08/15 10:55:13;;;;;;;2.60;2.22;;;;;;;25.81;38.27;94793.28;5061367;28;20624;-82
2022/08/15 10:57:47;;;;;;;2.83;2.38;;;;;;;25.47;38.51;94782.19;5032938;28;20228;-82
2022/08/15 11:00:29;;;;;;;2.35;2.20;;;;;;;25.69;39.00;94782.81;5033982;28;20208;-81
2022/08/15 11:02:57;;;;;;;5.20;2.72;;;;;;;25.51;37.92;94785.94;5027594;28;20183;-80
2022/08/15 11:05:26;;;;;;;2.70;2.50;;;;;;;25.58;38.62;94775.06;5027132;28;20244;-81
2022/08/15 11:07:53;;;;;;;3.35;2.55;;;;;;;25.47;39.02;94770.78;5036644;28;20683;-82
2022/08/15 11:10:22;;;;;;;4.18;2.30;;;;;;;25.74;38.79;94779.41;5029323;28;20185;-80
2022/08/15 11:12:51;;;;;;;2.83;2.40;;;;;;;25.94;38.22;94782.13;5043148;28;20572;-82
2022/08/15 11:15:25;;;;;;;4.70;3.05;;;;;;;25.89;38.83;94781.34;5035077;28;20204;-80
2022/08/15 11:17:57;;;;;;;3.22;2.65;;;;;;;25.69;38.13;94780.16;5028862;28;20200;-80
2022/08/15 11:20:24;;;;;;;3.28;2.13;;;;;;;25.65;38.60;94778.28;5046457;28;20253;-80
2022/08/15 11:22:55;;;;;;;2.80;2.25;;;;;;;25.84;38.51;94778.66;5042704;28;20185;-81
2022/08/15 11:25:30;;;;;;;4.85;2.83;;;;;;;25.87;38.84;94772.78;5047783;28;20767;-81
2022/08/15 11:28:04;;;;;;;3.85;2.35;;;;;;;26.16;37.67;94762.50;5037467;28;20197;-80
2022/08/15 11:30:33;;;;;;;2.55;2.33;;;;;;;25.50;38.49;94768.38;5051100;28;20679;-80
2022/08/15 11:33:27;;;;;;;4.90;2.85;;;;;;;25.83;38.34;94763.75;5033989;28;20196;-80
2022/08/15 11:36:18;;;;;;;3.92;2.53;;;;;;;26.26;37.31;94768.63;5033401;28;20198;-82
2022/08/15 11:38:50;;;;;;;4.80;2.38;;;;;;;25.89;38.21;94768.03;5016181;28;20662;-80
2022/08/15 11:41:26;;;;;;;2.40;2.20;;;;;;;25.78;37.17;94766.38;5031781;28;20182;-81
2022/08/15 11:43:52;;;;;;;3.42;2.50;;;;;;;25.67;37.77;94771.66;5045649;28;20553;-81
2022/08/15 11:46:20;;;;;;;3.10;2.50;;;;;;;25.69;37.57;94764.19;5035257;28;20752;-82
2022/08/15 11:48:52;;;;;;;3.55;2.83;;;;;;;25.85;37.06;94758.97;5032188;28;20204;-80
2022/08/15 11:51:27;;;;;;;3.35;2.50;;;;;;;25.98;37.53;94759.28;5049611;28;20236;-80
2022/08/15 11:54:19;;;;;;;3.58;2.28;;;;;;;26.03;36.52;94749.69;5045986;28;20268;-81
2022/08/15 11:56:49;;;;;;;2.67;2.47;;;;;;;25.94;36.92;94757.38;5053469;28;20841;-80
2022/08/15 11:59:24;;;;;;;3.58;2.65;;;;;;;26.05;36.58;94748.38;5046616;28;20178;-81
2022/08/15 12:02:04;;;;;;;3.25;2.70;;;;;;;26.09;36.79;94748.66;5047068;28;20185;-81
2022/08/15 12:04:33;;;;;;;3.15;2.85;;;;;;;25.41;37.87;94749.47;5044595;28;20288;-81
2022/08/15 12:07:07;;;;;;;3.78;2.42;;;;;;;26.02;37.11;94748.91;5049440;28;20474;-82
2022/08/15 12:09:33;;;;;;;4.70;3.20;;;;;;;26.42;36.44;94742.06;5048082;28;20212;-81
2022/08/15 12:11:58;;;;;;;4.00;2.53;;;;;;;26.45;36.03;94747.66;5034530;28;20700;-81